createdAt,value
2022-10-21T00:01:49.733Z,17.08
2022-10-21T00:04:16.319Z,7.03
2022-10-21T00:06:42.841Z,19.73
2022-10-21T00:09:09.395Z,8.18
2022-10-21T00:11:35.932Z,11.77
2022-10-21T00:14:02.465Z,12.20
2022-10-21T00:16:29.024Z,11.02
2022-10-21T00:18:55.576Z,17.65
2022-10-21T00:21:22.945Z,10.20
2022-10-21T00:23:52.592Z,12.80
2022-10-21T00:26:19.633Z,11.95
2022-10-21T00:28:46.153Z,15.75
2022-10-21T00:31:14.542Z,16.55
2022-10-21T00:33:41.628Z,11.68
2022-10-21T00:36:14.671Z,10.70
2022-10-21T00:38:43.825Z,13.88
2022-10-21T00:41:10.868Z,15.45
2022-10-21T00:43:57.385Z,12.68
2022-10-21T00:46:50.819Z,14.85
2022-10-21T00:49:32.431Z,16.75
2022-10-21T00:52:02.011Z,17.20
2022-10-21T00:54:29.952Z,18.10
2022-10-21T00:56:57.925Z,12.27
2022-10-21T00:59:31.677Z,27.73
2022-10-21T01:01:58.364Z,11.48
2022-10-21T01:04:24.944Z,18.50
2022-10-21T01:06:51.959Z,19.77
2022-10-21T01:09:19.877Z,25.80
2022-10-21T01:11:48.587Z,12.60
2022-10-21T01:14:53.457Z,16.45
2022-10-21T01:17:40.202Z,19.15
2022-10-21T01:20:40.563Z,14.85
2022-10-21T01:23:22.296Z,14.80
2022-10-21T01:26:16.793Z,15.25
2022-10-21T01:29:06.073Z,25.10
2022-10-21T01:31:43.170Z,10.93
2022-10-21T01:34:14.339Z,16.58
2022-10-21T01:36:48.463Z,23.93
2022-10-21T01:39:25.499Z,23.05
2022-10-21T01:42:05.065Z,20.02
2022-10-21T01:44:41.092Z,16.13
2022-10-21T01:47:22.296Z,13.65
2022-10-21T01:49:55.361Z,22.00
2022-10-21T01:52:22.593Z,10.95
2022-10-21T01:54:58.638Z,14.93
2022-10-21T01:57:29.898Z,16.27
2022-10-21T01:59:58.740Z,8.13
2022-10-21T02:02:29.835Z,15.38
2022-10-21T02:05:01.194Z,15.90
2022-10-21T02:07:28.683Z,16.15
2022-10-21T02:09:55.183Z,20.88
2022-10-21T02:12:24.898Z,16.70
2022-10-21T02:14:53.405Z,11.48
2022-10-21T02:17:22.465Z,14.27
2022-10-21T02:19:49.088Z,17.60
2022-10-21T02:22:22.056Z,16.85
2022-10-21T02:24:51.706Z,16.10
2022-10-21T02:27:19.512Z,18.02
2022-10-21T02:29:48.960Z,17.52
2022-10-21T02:32:37.231Z,11.23
2022-10-21T02:35:04.081Z,14.15
2022-10-21T02:40:11.527Z,12.75
2022-10-21T02:42:44.095Z,9.05
2022-10-21T02:45:10.694Z,16.70
2022-10-21T02:47:39.019Z,15.00
2022-10-21T02:50:06.513Z,13.13
2022-10-21T02:52:33.067Z,11.13
2022-10-21T02:54:59.610Z,17.33
2022-10-21T02:57:26.245Z,12.60
2022-10-21T02:59:52.749Z,23.80
2022-10-21T03:10:32.416Z,18.70
2022-10-21T03:12:59.010Z,16.67
2022-10-21T03:15:25.646Z,17.17
2022-10-21T03:17:52.235Z,19.63
2022-10-21T03:20:18.786Z,19.85
2022-10-21T03:22:45.454Z,24.40
2022-10-21T03:25:12.628Z,19.40
2022-10-21T03:27:39.949Z,16.48
2022-10-21T03:30:07.854Z,17.33
2022-10-21T03:32:35.127Z,18.52
2022-10-21T03:35:01.839Z,15.75
2022-10-21T03:37:28.361Z,18.08
2022-10-21T03:39:54.901Z,12.75
2022-10-21T03:42:21.525Z,21.77
2022-10-21T03:44:48.038Z,13.23
2022-10-21T03:47:14.700Z,16.35
2022-10-21T03:49:41.292Z,15.30
2022-10-21T03:52:07.888Z,28.23
2022-10-21T03:54:34.477Z,21.02
2022-10-21T03:57:01.025Z,20.48
2022-10-21T03:59:27.636Z,18.63
2022-10-21T04:01:54.231Z,18.83
2022-10-21T04:04:20.817Z,18.35
2022-10-21T04:06:47.408Z,25.38
2022-10-21T04:09:14.218Z,15.73
2022-10-21T04:11:40.757Z,31.50
2022-10-21T04:14:11.441Z,20.60
2022-10-21T04:16:41.128Z,20.35
2022-10-21T04:19:07.672Z,33.55
2022-10-21T04:21:34.246Z,26.55
2022-10-21T04:24:00.835Z,29.55
2022-10-21T04:26:27.385Z,23.92
2022-10-21T04:28:54.053Z,23.92
2022-10-21T04:31:20.565Z,19.98
2022-10-21T04:33:47.806Z,22.27
2022-10-21T04:36:14.372Z,32.00
2022-10-21T04:38:40.860Z,18.45
2022-10-21T04:41:07.416Z,14.73
2022-10-21T04:43:34.006Z,16.77
2022-10-21T04:46:00.555Z,19.13
2022-10-21T04:48:27.069Z,19.45
2022-10-21T04:50:54.222Z,27.55
2022-10-21T04:53:21.582Z,14.90
2022-10-21T04:55:54.612Z,12.15
2022-10-21T04:58:22.349Z,16.65
2022-10-21T05:00:50.592Z,16.10
2022-10-21T05:03:17.864Z,17.58
2022-10-21T05:05:44.425Z,13.48
2022-10-21T05:08:11.783Z,13.75
2022-10-21T05:10:38.529Z,11.70
2022-10-21T05:13:06.180Z,15.55
2022-10-21T05:15:33.707Z,8.68
2022-10-21T05:18:00.470Z,9.73
2022-10-21T05:20:27.038Z,12.35
2022-10-21T05:22:53.643Z,10.02
2022-10-21T05:25:21.383Z,12.40
2022-10-21T05:27:48.427Z,12.68
2022-10-21T05:30:15.049Z,9.18
2022-10-21T05:32:42.251Z,9.55
2022-10-21T05:35:09.082Z,6.10
2022-10-21T05:37:35.696Z,7.00
2022-10-21T05:40:04.348Z,16.92
2022-10-21T05:42:30.922Z,11.55
2022-10-21T05:44:57.432Z,12.13
2022-10-21T05:47:24.160Z,14.23
2022-10-21T05:49:51.207Z,18.38
2022-10-21T05:52:17.744Z,8.48
2022-10-21T05:54:44.303Z,8.07
2022-10-21T05:57:10.814Z,21.60
2022-10-21T05:59:37.348Z,18.15
2022-10-21T06:02:03.865Z,14.15
2022-10-21T06:04:32.835Z,18.92
2022-10-21T06:07:01.730Z,16.30
2022-10-21T06:09:28.308Z,14.00
2022-10-21T06:11:54.862Z,11.32
2022-10-21T06:14:21.475Z,13.15
2022-10-21T06:16:48.006Z,15.73
2022-10-21T06:19:14.610Z,15.00
2022-10-21T06:21:41.115Z,11.43
2022-10-21T06:24:07.763Z,11.43
2022-10-21T06:26:36.172Z,11.73
2022-10-21T06:29:03.703Z,13.27
2022-10-21T06:31:30.239Z,14.30
2022-10-21T06:33:56.759Z,11.25
2022-10-21T06:36:23.281Z,14.13
2022-10-21T06:38:49.935Z,18.15
2022-10-21T06:41:18.110Z,15.60
2022-10-21T06:43:44.857Z,9.93
2022-10-21T06:46:13.992Z,10.50
2022-10-21T06:48:40.615Z,13.13
2022-10-21T06:51:10.936Z,13.20
2022-10-21T06:53:39.199Z,12.63
2022-10-21T06:56:16.636Z,12.68
2022-10-21T06:58:46.471Z,19.05
2022-10-21T07:01:27.982Z,10.63
2022-10-21T07:04:06.051Z,9.52
2022-10-21T07:11:32.021Z,11.43
2022-10-21T07:14:00.530Z,11.35
2022-10-21T07:16:29.925Z,10.00
2022-10-21T07:18:56.678Z,11.48
2022-10-21T07:21:25.704Z,11.20
2022-10-21T07:23:55.577Z,13.95
2022-10-21T07:26:25.089Z,13.18
2022-10-21T07:28:52.340Z,10.23
2022-10-21T07:31:20.996Z,8.98
2022-10-21T07:33:48.978Z,8.70
2022-10-21T07:36:19.891Z,8.90
2022-10-21T07:38:48.099Z,11.70
2022-10-21T07:41:20.593Z,9.00
2022-10-21T07:43:48.416Z,7.53
2022-10-21T07:46:15.605Z,11.18
2022-10-21T07:48:42.395Z,6.65
2022-10-21T07:51:12.343Z,9.80
2022-10-21T07:53:40.030Z,10.10
2022-10-21T07:56:30.413Z,11.27
2022-10-21T07:58:57.087Z,11.60
2022-10-21T08:01:24.126Z,11.68
2022-10-21T08:03:53.662Z,13.00
2022-10-21T08:06:20.256Z,9.45
2022-10-21T08:08:47.010Z,8.75
2022-10-21T08:11:30.931Z,10.10
2022-10-21T08:13:57.893Z,8.18
2022-10-21T08:16:25.301Z,7.80
2022-10-21T08:18:51.955Z,10.98
2022-10-21T08:21:18.615Z,7.75
2022-10-21T08:23:45.440Z,7.43
2022-10-21T08:26:15.120Z,5.65
2022-10-21T08:28:42.631Z,8.43
2022-10-21T08:31:12.137Z,6.32
2022-10-21T08:33:39.575Z,8.40
2022-10-21T08:36:07.961Z,10.35
2022-10-21T08:38:34.647Z,6.65
2022-10-21T08:41:02.160Z,6.03
2022-10-21T08:43:33.093Z,5.30
2022-10-21T08:46:06.203Z,6.55
2022-10-21T08:48:41.826Z,3.88
2022-10-21T08:51:19.424Z,8.70
2022-10-21T08:53:48.858Z,4.72
2022-10-21T08:56:19.827Z,6.18
2022-10-21T08:58:51.086Z,5.70
2022-10-21T09:01:23.219Z,4.43
2022-10-21T09:06:37.057Z,3.80
2022-10-21T09:09:22.371Z,7.65
2022-10-21T09:12:19.271Z,20.85
2022-10-21T09:14:48.830Z,6.88
2022-10-21T09:17:34.422Z,5.07
2022-10-21T09:20:12.779Z,6.32
2022-10-21T09:22:45.194Z,3.90
2022-10-21T09:25:17.708Z,6.93
2022-10-21T09:27:55.478Z,10.77
2022-10-21T09:30:23.581Z,7.03
2022-10-21T09:33:01.570Z,8.50
2022-10-21T09:35:37.934Z,10.95
2022-10-21T09:38:10.425Z,5.53
2022-10-21T09:40:37.027Z,9.98
2022-10-21T09:43:05.766Z,4.68
2022-10-21T09:45:35.012Z,7.20
2022-10-21T09:48:16.673Z,7.45
2022-10-21T09:50:48.417Z,5.45
2022-10-21T09:53:45.915Z,5.97
2022-10-21T09:56:29.771Z,4.43
2022-10-21T09:59:08.548Z,8.77
2022-10-21T10:01:36.746Z,5.05
2022-10-21T10:04:21.038Z,3.65
2022-10-21T10:06:47.657Z,5.95
2022-10-21T10:09:33.524Z,5.95
2022-10-21T10:12:23.347Z,2.83
2022-10-21T10:14:50.361Z,6.63
2022-10-21T10:17:26.226Z,4.40
2022-10-21T10:20:04.678Z,6.35
2022-10-21T10:22:38.079Z,4.47
2022-10-21T10:25:11.991Z,2.92
2022-10-21T10:27:59.315Z,6.63
2022-10-21T10:30:36.546Z,5.90
2022-10-21T10:33:10.406Z,4.50
2022-10-21T10:35:38.540Z,2.75
2022-10-21T10:38:05.968Z,4.03
2022-10-21T10:40:41.870Z,4.25
2022-10-21T10:43:20.597Z,6.25
2022-10-21T10:46:10.297Z,4.95
2022-10-21T10:48:39.719Z,3.38
2022-10-21T10:51:23.145Z,4.38
2022-10-21T10:54:16.519Z,3.35
2022-10-21T10:56:52.630Z,6.40
2022-10-21T10:59:45.048Z,5.43
2022-10-21T11:02:12.282Z,3.78
2022-10-21T11:05:05.829Z,9.60
2022-10-21T11:07:39.240Z,8.90
2022-10-21T11:10:37.415Z,3.75
2022-10-21T11:13:10.079Z,4.00
2022-10-21T11:15:45.735Z,8.30
2022-10-21T11:18:25.272Z,4.47
2022-10-21T11:21:09.994Z,2.63
2022-10-21T11:23:57.666Z,10.77
2022-10-21T11:26:44.725Z,6.80
2022-10-21T11:29:32.657Z,7.75
2022-10-21T11:32:16.773Z,6.55
2022-10-21T11:35:28.089Z,5.82
2022-10-21T11:37:57.524Z,6.30
2022-10-21T11:40:36.704Z,8.50
2022-10-21T11:43:45.351Z,9.40
2022-10-21T11:46:45.983Z,8.55
2022-10-21T11:49:46.019Z,9.85
2022-10-21T11:52:27.947Z,6.95
2022-10-21T11:55:10.712Z,7.63
2022-10-21T11:57:40.612Z,7.70
2022-10-21T12:00:18.823Z,6.85
2022-10-21T12:02:58.841Z,6.47
2022-10-21T12:05:37.127Z,5.60
2022-10-21T12:08:27.517Z,9.25
2022-10-21T12:11:10.656Z,9.85
2022-10-21T12:13:49.845Z,6.80
2022-10-21T12:16:20.240Z,6.32
2022-10-21T12:19:10.582Z,11.68
2022-10-21T12:21:40.263Z,5.47
2022-10-21T12:24:24.855Z,10.75
2022-10-21T12:27:25.101Z,8.15
2022-10-21T12:30:00.610Z,4.10
2022-10-21T12:32:33.161Z,6.25
2022-10-21T12:35:01.211Z,7.43
2022-10-21T12:38:05.496Z,6.00
2022-10-21T12:40:33.167Z,9.07
2022-10-21T12:43:23.191Z,5.88
2022-10-21T12:46:08.078Z,8.93
2022-10-21T12:48:43.325Z,9.18
2022-10-21T12:51:23.883Z,8.57
2022-10-21T12:54:05.768Z,10.25
2022-10-21T12:56:45.454Z,6.72
2022-10-21T12:59:29.551Z,8.93
2022-10-21T13:02:05.258Z,6.90
2022-10-21T13:04:31.756Z,6.97
2022-10-21T13:07:01.246Z,8.77
2022-10-21T13:09:35.320Z,4.68
2022-10-21T13:12:15.834Z,4.25
2022-10-21T13:14:46.800Z,5.95
2022-10-21T13:17:27.068Z,8.18
2022-10-21T13:20:17.416Z,7.57
2022-10-21T13:22:46.600Z,10.80
2022-10-21T13:25:16.352Z,9.55
2022-10-21T13:27:47.922Z,9.63
2022-10-21T13:30:33.486Z,6.10
2022-10-21T13:33:15.048Z,7.72
2022-10-21T13:35:45.443Z,4.85
2022-10-21T13:38:23.281Z,10.43
2022-10-21T13:40:53.401Z,5.45
2022-10-21T13:43:29.610Z,11.95
2022-10-21T13:46:07.312Z,8.15
2022-10-21T13:48:42.199Z,6.90
2022-10-21T13:51:19.943Z,12.38
2022-10-21T13:53:47.061Z,9.38
2022-10-21T13:56:32.024Z,7.05
2022-10-21T13:58:59.029Z,12.45
2022-10-21T14:01:49.870Z,12.23
2022-10-21T14:04:26.543Z,9.02
2022-10-21T14:06:58.446Z,10.57
2022-10-21T14:12:00.471Z,8.88
2022-10-21T14:14:29.071Z,6.05
2022-10-21T14:16:59.303Z,10.77
2022-10-21T14:19:30.927Z,10.13
2022-10-21T14:21:59.637Z,10.70
2022-10-21T14:24:36.869Z,9.70
2022-10-21T14:27:04.667Z,6.90
2022-10-21T14:29:34.765Z,9.13
2022-10-21T14:32:03.179Z,12.52
2022-10-21T14:34:32.390Z,8.55
2022-10-21T14:37:18.383Z,7.82
2022-10-21T14:39:45.172Z,7.13
2022-10-21T14:42:21.769Z,7.90
2022-10-21T14:44:52.456Z,8.95
2022-10-21T14:47:21.886Z,9.15
2022-10-21T14:49:51.270Z,13.52
2022-10-21T14:52:43.816Z,8.38
2022-10-21T14:55:14.931Z,9.93
2022-10-21T14:57:53.615Z,9.90
2022-10-21T15:00:30.369Z,8.18
2022-10-21T15:02:58.709Z,11.93
2022-10-21T15:05:49.105Z,9.25
2022-10-21T15:08:22.772Z,14.07
2022-10-21T15:11:00.222Z,9.45
2022-10-21T15:13:27.018Z,8.88
2022-10-21T15:15:55.918Z,9.10
2022-10-21T15:18:43.123Z,7.85
2022-10-21T15:21:25.451Z,8.93
2022-10-21T15:23:57.699Z,12.55
2022-10-21T15:26:35.707Z,10.25
2022-10-21T15:29:20.292Z,17.48
2022-10-21T15:31:47.507Z,6.10
2022-10-21T15:34:16.016Z,15.43
2022-10-21T15:36:44.123Z,11.50
2022-10-21T15:39:11.645Z,10.20
2022-10-21T15:41:38.709Z,11.70
2022-10-21T15:44:17.139Z,7.00
2022-10-21T15:46:47.100Z,15.80
2022-10-21T15:49:24.925Z,10.75
2022-10-21T15:51:51.757Z,9.35
2022-10-21T15:54:20.003Z,10.90
2022-10-21T15:56:49.904Z,10.75
2022-10-21T15:59:24.641Z,11.27
2022-10-21T16:01:52.288Z,8.80
2022-10-21T16:04:19.510Z,9.75
2022-10-21T16:06:49.677Z,9.20
2022-10-21T16:09:22.560Z,14.38
2022-10-21T16:12:06.296Z,12.88
2022-10-21T16:14:32.817Z,10.27
2022-10-21T16:16:59.765Z,11.88
2022-10-21T16:19:26.563Z,14.75
2022-10-21T16:21:53.109Z,13.68
2022-10-21T16:24:19.820Z,13.00
2022-10-21T16:26:49.140Z,8.07
2022-10-21T16:31:51.200Z,9.93
2022-10-21T16:34:18.265Z,10.13
2022-10-21T16:36:44.883Z,9.32
2022-10-21T16:39:24.288Z,10.73
2022-10-21T16:41:51.084Z,12.35
2022-10-21T16:44:18.436Z,10.88
2022-10-21T16:46:55.581Z,7.80
2022-10-21T16:49:25.309Z,14.98
2022-10-21T16:51:53.041Z,11.68
2022-10-21T16:54:22.691Z,5.15
2022-10-21T16:56:52.051Z,11.13
2022-10-21T16:59:21.348Z,8.57
2022-10-21T17:01:47.874Z,8.50
2022-10-21T17:04:14.680Z,13.60
2022-10-21T17:06:41.790Z,11.93
2022-10-21T17:09:08.636Z,23.55
2022-10-21T17:11:38.542Z,9.60
2022-10-21T17:14:07.601Z,13.13
2022-10-21T17:16:34.163Z,11.07
2022-10-21T17:19:00.716Z,8.93
2022-10-21T17:21:32.625Z,15.63
2022-10-21T17:24:02.081Z,17.20
2022-10-21T17:26:30.257Z,13.18
2022-10-21T17:28:57.634Z,14.25
2022-10-21T17:31:26.478Z,12.25
2022-10-21T17:33:59.130Z,16.17
2022-10-21T17:36:25.632Z,17.33
2022-10-21T17:38:52.165Z,11.60
2022-10-21T17:41:20.461Z,11.77
2022-10-21T17:43:48.018Z,18.70
2022-10-21T17:46:20.146Z,10.38
2022-10-21T17:51:21.404Z,11.82
2022-10-21T17:53:49.957Z,13.70
2022-10-21T17:56:17.119Z,9.43
2022-10-21T17:58:43.682Z,15.15
2022-10-21T18:01:13.696Z,15.55
2022-10-21T18:03:40.556Z,15.07
2022-10-21T18:06:09.776Z,11.65
2022-10-21T18:08:36.756Z,15.23
2022-10-21T18:11:08.578Z,10.77
2022-10-21T18:13:35.833Z,14.55
2022-10-21T18:16:11.879Z,23.80
2022-10-21T18:18:38.953Z,12.32
2022-10-21T18:21:15.137Z,15.43
2022-10-21T18:23:44.223Z,19.35
2022-10-21T18:26:19.576Z,13.00
2022-10-21T18:28:50.361Z,13.57
2022-10-21T18:31:20.530Z,10.90
2022-10-21T18:33:47.650Z,15.07
2022-10-21T18:36:15.746Z,18.98
2022-10-21T18:38:42.722Z,20.73
2022-10-21T18:41:20.084Z,21.00
2022-10-21T18:43:47.985Z,12.38
2022-10-21T18:46:14.571Z,12.63
2022-10-21T18:48:41.598Z,13.50
2022-10-21T18:51:09.930Z,22.63
2022-10-21T18:53:37.667Z,22.13
2022-10-21T18:56:10.323Z,11.98
2022-10-21T18:58:37.640Z,14.00
2022-10-21T19:01:05.387Z,16.83
2022-10-21T19:03:32.468Z,17.02
2022-10-21T19:06:14.557Z,20.38
2022-10-21T19:08:41.210Z,21.13
2022-10-21T19:11:07.762Z,23.02
2022-10-21T19:13:34.282Z,20.50
2022-10-21T19:16:00.807Z,16.25
2022-10-21T19:18:27.622Z,18.77
2022-10-21T19:20:54.250Z,15.80
2022-10-21T19:23:20.738Z,22.27
2022-10-21T19:25:47.254Z,19.90
2022-10-21T19:28:13.830Z,17.15
2022-10-21T19:30:40.733Z,13.95
2022-10-21T19:33:07.237Z,22.40
2022-10-21T19:35:33.784Z,18.48
2022-10-21T19:38:03.216Z,20.90
2022-10-21T19:40:34.601Z,19.95
2022-10-21T19:43:01.105Z,16.38
2022-10-21T19:45:27.809Z,25.48
2022-10-21T19:47:54.343Z,22.10
2022-10-21T19:50:20.866Z,17.92
2022-10-21T19:52:47.470Z,16.23
2022-10-21T19:55:14.066Z,16.25
2022-10-21T19:57:40.728Z,21.77
2022-10-21T20:00:08.107Z,20.85
2022-10-21T20:02:34.757Z,20.45
2022-10-21T20:05:01.391Z,14.95
2022-10-21T20:07:27.997Z,20.70
2022-10-21T20:09:54.524Z,17.55
2022-10-21T20:12:21.038Z,22.98
2022-10-21T20:14:47.582Z,20.58
2022-10-21T20:17:16.139Z,22.05
2022-10-21T20:19:50.792Z,19.55
2022-10-21T20:22:17.888Z,22.08
2022-10-21T20:24:46.319Z,13.75
2022-10-21T20:27:13.497Z,21.75
2022-10-21T20:29:40.042Z,21.60
2022-10-21T20:32:06.606Z,14.75
2022-10-21T20:34:34.135Z,20.45
2022-10-21T20:37:04.029Z,17.35
2022-10-21T20:39:30.521Z,16.45
2022-10-21T20:41:57.174Z,18.25
2022-10-21T20:44:23.670Z,31.75
2022-10-21T20:46:50.224Z,22.02
2022-10-21T20:49:16.764Z,20.55
2022-10-21T20:51:43.467Z,23.27
2022-10-21T20:54:14.279Z,17.23
2022-10-21T20:56:41.728Z,12.82
2022-10-21T20:59:11.685Z,21.17
2022-10-21T21:01:42.021Z,21.75
2022-10-21T21:04:11.659Z,27.88
2022-10-21T21:06:44.031Z,18.45
2022-10-21T21:14:30.025Z,20.58
2022-10-21T21:16:56.795Z,23.27
2022-10-21T21:19:23.436Z,14.65
2022-10-21T21:21:50.066Z,18.13
2022-10-21T21:24:16.640Z,19.17
2022-10-21T21:26:43.156Z,14.57
2022-10-21T21:29:10.290Z,35.80
2022-10-21T21:31:38.564Z,26.98
2022-10-21T21:34:05.904Z,19.95
2022-10-21T21:36:32.580Z,29.15
2022-10-21T21:38:59.278Z,29.17
2022-10-21T21:41:26.760Z,27.13
2022-10-21T21:43:54.771Z,32.58
2022-10-21T21:46:23.972Z,32.92
2022-10-21T21:48:59.584Z,35.03
2022-10-21T21:51:30.344Z,30.75
2022-10-21T21:53:57.790Z,19.33
2022-10-21T21:56:26.618Z,23.85
2022-10-21T21:58:55.796Z,24.35
2022-10-21T22:01:25.316Z,27.30
2022-10-21T22:03:52.322Z,31.73
2022-10-21T22:06:20.929Z,33.50
2022-10-21T22:08:47.748Z,25.77
2022-10-21T22:11:17.630Z,26.33
2022-10-21T22:13:44.655Z,27.75
2022-10-21T22:16:13.095Z,29.73
2022-10-21T22:18:39.714Z,31.73
2022-10-21T22:21:09.306Z,40.80
2022-10-21T22:23:37.475Z,35.72
2022-10-21T22:26:04.599Z,31.83
2022-10-21T22:28:31.650Z,22.05
2022-10-21T22:31:06.705Z,26.55
2022-10-21T22:33:33.912Z,38.90
2022-10-21T22:36:00.976Z,34.85
2022-10-21T22:38:29.375Z,27.42
2022-10-21T22:40:58.187Z,29.00
2022-10-21T22:43:26.343Z,35.83
2022-10-21T22:45:57.673Z,33.08
2022-10-21T22:48:36.677Z,26.58
2022-10-21T22:51:03.183Z,20.70
2022-10-21T22:53:29.757Z,20.15
2022-10-21T22:55:56.326Z,20.98
2022-10-21T22:58:23.326Z,24.25
2022-10-21T23:00:50.695Z,31.33
2022-10-21T23:03:18.946Z,24.85
2022-10-21T23:05:47.054Z,27.08
2022-10-21T23:08:13.917Z,33.28
2022-10-21T23:10:40.506Z,32.80
2022-10-21T23:13:07.062Z,28.35
2022-10-21T23:15:34.787Z,27.98
2022-10-21T23:18:02.147Z,36.20
2022-10-21T23:20:28.721Z,28.02
2022-10-21T23:22:55.285Z,29.40
2022-10-21T23:25:23.096Z,32.85
2022-10-21T23:27:50.166Z,28.02
2022-10-21T23:30:17.733Z,21.90
2022-10-21T23:32:44.636Z,23.65
2022-10-21T23:35:11.183Z,26.05
2022-10-21T23:37:38.059Z,19.00
2022-10-21T23:40:05.776Z,24.85
2022-10-21T23:42:32.338Z,30.95
2022-10-21T23:44:58.841Z,27.90
2022-10-21T23:47:25.390Z,27.10
2022-10-21T23:49:51.957Z,29.20
2022-10-21T23:52:18.471Z,40.58
2022-10-21T23:54:44.967Z,24.20
2022-10-21T23:57:11.560Z,30.17
2022-10-21T23:59:38.108Z,29.65
